Rajit Kumar

Online Scores

Largest Online score
₹1,60,000
Event Name Buy-in Position Won Date Network
Nano Wednesday Adda 225 + 25 4/189 6,588 14-04-2021 Adda52
Punch (500 + 50) * 3 9/130 2,396 03-04-2021 Adda52
Afternoon Adda 900 + 90 19/116 2,317 31-03-2021 Adda52
Voyager (1,000 + 100) * 1 20/222 3,443 31-03-2021 Adda52
AOPS Byte 315 + 35 11/151 2,282 26-06-2020 Adda52
Nighttide Adda (685 + 65) * 3 12/130 2,334 07-06-2020 Adda52
Afternoon Adda (600 + 60) * 2 26/128 1,323 01-06-2020 Adda52
Big Slick 2,250 + 250 31/357 9,498 01-06-2020 Adda52
10 GTD Big Slick Satty (200 + 20) * 1 2/100 2,500 31-05-2020 Adda52
Evening Adda (600 + 60) * 1 17/89 1,485 30-05-2020 Adda52
Afterdark Adda 1,000 + 100 24/97 770 28-05-2020 Adda52
10 GTD Maverick Satty 225 + 25 11/103 714 27-05-2020 Adda52
Adios 1,000 + 100 17/102 3,000 25-05-2020 Adda52
Holdem Bash 1,138 + 112 27/143 2,513 24-05-2020 Adda52
7 GTD Big Slick Satty 200 + 20 3/54 2,114 24-05-2020 Adda52
Evening Adda (600 + 60) * 1 2/73 17,402 22-05-2020 Adda52
Afternoon Adda 600 + 60 23/130 986 19-05-2020 Adda52
Evening Adda 600 + 60 1/83 21,000 18-05-2020 Adda52
AOPS Under The Gun (909 + 91) * 2 61/120 500 17-05-2020 Adda52
10 GTD AOPS Colva Satty (200 + 20) * 1 5/115 2,500 17-05-2020 Adda52
AOPS Afterparty PKO (1,000 + 100) * 1 135/186 110 17-05-2020 Adda52
Turbo Clash 150 (130 + 20) * 1 10/84 503 16-05-2020 Adda52
AOPS Under The Gun (909 + 91) * 1 75/142 250 15-05-2020 Adda52
AOPS Dusk (900 + 90) * 1 3/104 23,652 13-05-2020 Adda52
Evening Adda (600 + 60) * 1 2/85 13,770 13-05-2020 Adda52
Knockout 250 219 + 31 2/97 4,706 12-05-2020 Adda52
AOPS Afterparty PKO 1,000 + 100 132/175 330 11-05-2020 Adda52
Battleground 230 + 20 14/176 772 11-05-2020 Adda52
Turbo Clash 150 (130 + 20) * 1 47/109 60 10-05-2020 Adda52
7 GTD AOPS Colva Satty 200 + 20 3/67 2,500 10-05-2020 Adda52
Evening Adda 600 + 60 9/136 2,880 09-05-2020 Adda52
AOPS Under The Gun (909 + 91) * 1 40/180 375 08-05-2020 Adda52
AOPS Afterparty PKO 1,000 + 100 126/194 110 08-05-2020 Adda52
Sundown Adda (400 + 40) * 2 1/116 22,796 06-05-2020 Adda52
Sundown Adda (400 + 40) * 2 12/129 1,318 05-05-2020 Adda52
Afterdark Adda 1,000 + 100 19/121 3,469 05-05-2020 Adda52
10 GTD Full House Satty 500 + 50 11/120 2,063 03-05-2020 Adda52
Turbo Clash 150 130 + 20 7/95 936 02-05-2020 Adda52
Power House 100 + 10 2/264 8,375 01-05-2020 Adda52
Sundown Adda (400 + 40) * 1 24/131 745 01-05-2020 Adda52
Evening Adda (600 + 60) * 2 2/84 16,988 30-04-2020 Adda52
Sundown Adda 400 + 40 3/135 11,417 30-04-2020 Adda52
Nighttide Adda 685 + 65 11/127 2,577 30-04-2020 Adda52
Evening Adda (600 + 60) * 1 4/82 7,980 29-04-2020 Adda52
Sundown Adda (400 + 40) * 1 1/110 20,608 28-04-2020 Adda52
Afternoon Adda 600 + 60 21/150 1,494 28-04-2020 Adda52
Afternoon Adda (600 + 60) * 1 5/133 9,522 27-04-2020 Adda52
Afterdark Adda 1,000 + 100 11/131 4,554 26-04-2020 Adda52
Sundown Adda 400 + 40 12/94 1,155 25-04-2020 Adda52
Afterdark Adda 1,000 + 100 21/109 1,873 25-04-2020 Adda52
Nighttide Adda (685 + 65) * 1 23/139 1,322 23-04-2020 Adda52
Evening Adda 600 + 60 3/80 9,906 22-04-2020 Adda52
Sundown Adda (400 + 40) * 2 9/120 1,863 22-04-2020 Adda52
Afterdark Adda (1,000 + 100) * 1 7/126 6,810 22-04-2020 Adda52
Evening Adda (600 + 60) * 3 1/99 25,092 21-04-2020 Adda52
Afternoon Adda 600 + 60 5/162 10,557 21-04-2020 Adda52
10 GTD Maverick Satty (225 + 25) * 1 5/137 2,500 15-04-2020 Adda52
Afternoon Adda 600 + 60 21/141 1,320 15-04-2020 Adda52
Battleground 230 + 20 23/210 622 13-04-2020 Adda52
AOPS Knockout (909 + 91) * 1 112/179 375 10-04-2020 Adda52
AOPS Moonlight 1,500 + 150 14/185 5,330 09-04-2020 Adda52
AOPS 11th Hr PKO 1,000 + 100 29/156 3,183 08-04-2020 Adda52
AOPS Warm Up (1,138 + 112) * 2 35/188 2,547 07-04-2020 Adda52
10 GTD Falcon Satty 200 + 20 6/82 2,200 07-04-2020 Adda52
AOPS Siesta 900 + 90 21/114 1,737 06-04-2020 Adda52
Battleground (230 + 20) * 1 3/162 7,315 06-04-2020 Adda52
10 GTD Big Slick Satty 200 + 20 8/163 2,500 05-04-2020 Adda52
Quad KO 200 167 + 33 26/82 91 03-04-2020 Adda52
Evening Adda 600 + 60 12/85 1,788 02-04-2020 Adda52
Afternoon Adda (600 + 60) * 1 10/161 2,826 01-04-2020 Adda52
Afternoon Adda (600 + 60) * 3 2/160 28,731 31-03-2020 Adda52
Evening Adda (600 + 60) * 2 1/87 21,504 30-03-2020 Adda52
Falcon (2,455 + 245) * 1 78/140 250 30-03-2020 Adda52
Holdem AF 1,000 + 100 4/211 34,480 29-03-2020 Adda52
10 GTD Falcon Satty 200 + 20 13/101 508 27-03-2020 Adda52
Evening Adda 600 + 60 21/118 1,150 26-03-2020 Adda52
Sundown Adda 400 + 40 6/124 3,655 26-03-2020 Adda52
Afterdark Adda (1,000 + 100) * 3 15/127 3,070 25-03-2020 Adda52
Evening Adda 600 + 60 2/101 16,014 24-03-2020 Adda52
Sundown Adda (400 + 40) * 5 2/114 15,211 24-03-2020 Adda52
Afternoon Adda (600 + 60) * 2 15/182 2,237 24-03-2020 Adda52
Sundown Adda 400 + 40 2/114 14,336 23-03-2020 Adda52
Tuesday Adda 910 + 90 12/96 3,500 05-03-2019 Adda52
Friday Adda (682 + 68) * 2 16/109 1,875 01-03-2019 Adda52
Thursday Adda 800 + 80 21/101 2,000 28-02-2019 Adda52
Crazy 4 460 + 40 5/52 4,858 27-02-2019 Adda52
Beast (900 + 90) * 1 16/111 2,228 27-02-2019 Adda52
Tuesday Adda 910 + 90 15/95 2,500 26-02-2019 Adda52
Crazy 4 460 + 40 2/55 9,614 25-02-2019 Adda52
15GTD Grand FT Deadline 350 + 0 7/58 1,773 24-02-2019 Adda52
CrackJack 3,409 + 341 49/122 2,000 17-02-2019 Adda52
Beast (900 + 90) * 1 10/110 3,238 17-02-2019 Adda52
Saturday Adda 455 + 45 17/155 1,290 16-02-2019 Adda52
Beast (900 + 90) * 1 2/106 29,400 15-02-2019 Adda52
Wednesday Adda 707 + 70 1/106 48,125 13-02-2019 Adda52
Beast (900 + 90) * 7 2/116 32,000 12-02-2019 Adda52
Sunday Adda 910 + 90 19/107 2,000 10-02-2019 Adda52
Saturday Adda 455 + 45 10/129 1,887 09-02-2019 Adda52
Maverick 1,000 + 100 31/325 3,799 06-02-2019 Adda52
Friday Adda 682 + 68 23/127 1,274 01-02-2019 Adda52
Maverick (1,000 + 100) * 1 47/350 3,365 31-01-2019 Adda52
Beast 900 + 90 2/107 30,274 30-01-2019 Adda52
Mega Suits (5,000 + 500) * 1 26/323 18,000 28-01-2019 Adda52
15 GTD Mega Suits Deadline 550 + 0 7/97 5,097 27-01-2019 Adda52
Saturday Adda 455 + 45 25/148 911 26-01-2019 Adda52
Friday Adda 682 + 68 2/113 30,349 25-01-2019 Adda52
Mega Suits 5,000 + 500 43/346 15,000 21-01-2019 Adda52
Beast 900 + 90 1/135 63,666 20-01-2019 Adda52
Saturday Adda 455 + 45 6/151 4,970 19-01-2019 Adda52
Wednesday Adda (707 + 70) * 4 13/116 2,625 16-01-2019 Adda52
10 GTD Go Vegas Satellite 275 + 0 2/68 2,448 15-01-2019 Adda52
Tuesday Adda (910 + 90) * 1 17/114 2,673 15-01-2019 Adda52
Beast (900 + 90) * 2 9/125 4,000 15-01-2019 Adda52
Monday Adda (455 + 45) * 2 2/119 22,505 14-01-2019 Adda52
Mega Suits 5,000 + 500 13/305 27,000 14-01-2019 Adda52
Sunday Adda (910 + 90) * 4 6/112 8,500 13-01-2019 Adda52
Beast (900 + 90) * 2 16/135 2,552 13-01-2019 Adda52
Saturday Adda 455 + 45 24/134 788 12-01-2019 Adda52
Beast (900 + 90) * 1 5/141 14,094 11-01-2019 Adda52
Wednesday Adda 707 + 70 18/104 1,750 09-01-2019 Adda52
Tuesday Adda 910 + 90 11/100 3,700 08-01-2019 Adda52
Beast 900 + 90 7/126 7,547 26-12-2018 Adda52
CS32 Main Event 990 + 110 56/444 2,800 10-12-2018 Adda52
CS31 ME Warm Up 495 + 55 30/204 1,089 09-12-2018 Adda52
CS26 Saturday Adda 455 + 45 30/185 826 08-12-2018 Adda52
CS11 Wednesday Adda (707 + 70) * 2 2/125 31,500 05-12-2018 Adda52
Snowfall (455 + 45) * 2 52/851 2,639 04-12-2018 Adda52
Sunday Adda (910 + 90) * 2 3/136 26,197 02-12-2018 Adda52
Beast (900 + 90) * 3 2/133 33,408 01-12-2018 Adda52
CrackJack (3,409 + 341) * 2 72/119 500 01-12-2018 Adda52
Saturday Adda 455 + 45 3/165 14,251 01-12-2018 Adda52
Friday Adda (682 + 68) * 1 25/128 1,381 30-11-2018 Adda52
Thursday Adda 800 + 80 21/104 2,000 29-11-2018 Adda52
Thursday Adda 800 + 80 1/124 54,500 25-10-2018 Adda52
Monday Adda 455 + 45 2/135 23,578 08-10-2018 Adda52
Tuesday Adda 910 + 90 14/111 2,707 25-09-2018 Adda52
Saturday Adda (455 + 45) * 1 26/149 860 22-09-2018 Adda52
Judwaa 2,500 + 250 1/90 1,60,000 20-09-2018 Adda52
Tuesday Adda (910 + 90) * 1 9/97 4,500 18-09-2018 Adda52
Night Riders 910 + 90 6/47 5,500 18-09-2018 Adda52

Online Rankings

i Top Ranked Poker Players in India
Member Won
Member Won
1.S K S K
₹32,63,425
₹29,67,681
₹29,00,552
₹25,50,643
₹22,06,702
₹21,34,435
₹20,83,143
₹20,39,688
₹20,19,929
₹19,86,457
Member Won
Member Profit
Member Profit
₹25,08,952
₹20,23,187
₹19,73,972
4.S KS K
₹19,67,792
₹19,34,883
₹17,98,577
₹14,55,259
₹13,52,326
₹10,96,763
₹10,81,403
Member Profit
Member Points
Member Points
8,826
7,692
5,401
5,276
5,126
4,691
4,376
4,093
3,995
3,932
Member Points

Top Online Poker Rooms

Top
PokerGuru

Wide Banner 728

Wide Banner 728